Airfield :
LOGIN :

Register | Disclaimer

   EN    FR    IT 

 










Legend :    VFR   Marginal VFR   IFR   Intensive IFR   Very Intensive IFR
Visi :
Ceiling :
>= 8 km
>= 3000ft
5 to 8 km
1000 to 3000 ft
1500m to 5 km
500 to 1000 ft
800 to 1500m
200 to 500 ft
< 800m
< 200 ft
Symbols :   Thunderstorms  Fog  Heavy snow  Heavy precipitations  Wind > 20 kt
SIGMETs :     Misc.  Thunderstorms  Icing  Turbulence  Mountain Waves  Volcanic Ashes






- Airport Elevation : 584 ft


LFPV - Villacoublay Vélizy

CURRENT METAR :
  • 141500Z AUTO VRB03KT 9999 BKN038 19/11 Q1021 NOSIG

EXPIRED METARs :
  • 141430Z AUTO VRB02KT 9999 FEW038 SCT250 20/11 Q1021 NOSIG
  • 141400Z AUTO 32004KT 250V030 CAVOK 19/09 Q1022 NOSIG
  • 141330Z AUTO VRB02KT 9999 FEW038 19/10 Q1022 NOSIG
  • 141300Z AUTO VRB03KT 9999 FEW035 19/11 Q1023 NOSIG
  • 141230Z AUTO VRB02KT 9999 SCT032 SCT250 18/12 Q1023 NOSIG
  • 141200Z AUTO VRB03KT 9999 FEW029 SCT250 17/10 Q1024 NOSIG
  • 141130Z AUTO VRB03KT 9999 SCT026 17/10 Q1024 NOSIG
  • 141100Z AUTO 28004KT 240V340 9999 SCT023 SCT240 16/11 Q1024 NOSIG
  • 141030Z AUTO VRB02KT 9999 FEW019 SCT250 15/11 Q1025 NOSIG

TAF TAF LFPV
Valid from the 14 at 15:00 until the 15 at 15:00 UTC


141400Z 1415/1515 27003KT CAVOK TX19/1415Z TN08/1506Z
BECMG 1509/1510 27015G25KT BKN015
BECMG 1512/1513 4000 RA OVC012
TEMPO 1513/1515 27015G30KT -TSRA BKN020CB



MET'MAP, your aeronautical weather chart ! - Copyright ORBIFLY December 2007 - Disclaimer

ORBIFLY MET'MAP TEAM :

Programming & Development : Alexandra Zaïnal
Original concept : Baudouin d'Aumeries
Technical & hardware support : Manuel Goepfert
Assistance : Marc-Olivier Méhu




SOURCES & CREDITS :

   NOAA